Time;durP1;ratioP1;P1;durP2;ratioP2;P2;SDS_P1;SDS_P2;PMS_P1;PMS_P2;Temp;Humidity;BMP_temperature;BMP_pressure;BME280_temperature;BME280_humidity;BME280_pressure;Samples;Min_cycle;Max_cycle;Signal;HPM_P1;HPM_P2
2023/04/05 00:01:59;;;;;;;;;;;;;;;1.92;100.00;98856.38;5055384;28;815;-62
2023/04/05 00:04:27;;;;;;;;;;;;;;;1.88;100.00;98854.72;5055711;28;779;-65
2023/04/05 00:06:54;;;;;;;;;;;;;;;1.85;100.00;98842.63;5053642;28;1948;-66
2023/04/05 00:09:20;;;;;;;;;;;;;;;1.83;100.00;98870.25;5054980;28;1301;-70
2023/04/05 00:11:47;;;;;;;;;;;;;;;1.80;100.00;98851.91;5055259;28;838;-63
2023/04/05 00:14:14;;;;;;;;;;;;;;;1.83;100.00;98885.81;5053620;28;1333;-63
2023/04/05 00:16:41;;;;;;;;;;;;;;;1.82;100.00;98871.41;5055006;28;822;-62
2023/04/05 00:19:11;;;;;;;;;;;;;;;1.80;100.00;98881.09;5054929;28;798;-65
2023/04/05 00:21:38;;;;;;;;;;;;;;;1.79;100.00;98879.50;5054577;28;838;-64
2023/04/05 00:24:06;;;;;;;;;;;;;;;1.72;100.00;98866.56;5054414;28;826;-67
2023/04/05 00:26:31;;;;;;;;;;;;;;;1.68;100.00;98884.00;5054364;28;1981;-70
2023/04/05 00:28:58;;;;;;;;;;;;;;;1.56;100.00;98883.06;5053148;28;1298;-66
2023/04/05 00:31:29;;;;;;;;;;;;;;;1.43;100.00;98895.31;5054358;28;783;-67
2023/04/05 00:33:56;;;;;;;;;;;;;;;1.30;100.00;98886.53;5054365;28;861;-68
2023/04/05 00:36:23;;;;;;;;;;;;;;;1.28;100.00;98893.47;5054379;28;874;-68
2023/04/05 00:38:50;;;;;;;;;;;;;;;1.35;100.00;98880.75;5054272;28;854;-69
2023/04/05 00:41:17;;;;;;;;;;;;;;;1.37;100.00;98897.53;5052857;28;1351;-68
2023/04/05 00:43:44;;;;;;;;;;;;;;;1.33;100.00;98893.97;5054153;28;869;-68
2023/04/05 00:46:11;;;;;;;;;;;;;;;1.33;100.00;98901.34;5052842;28;1231;-68
2023/04/05 00:48:38;;;;;;;;;;;;;;;1.36;100.00;98895.16;5054007;28;1882;-65
2023/04/05 00:51:10;;;;;;;;;;;;;;;1.38;100.00;98874.59;5052761;28;1195;-71
2023/04/05 00:53:37;;;;;;;;;;;;;;;1.43;100.00;98870.78;5054056;28;901;-67
2023/04/05 00:56:04;;;;;;;;;;;;;;;1.39;100.00;98889.78;5053952;28;810;-72
2023/04/05 00:58:32;;;;;;;;;;;;;;;1.35;100.00;98880.75;5053839;28;834;-74
2023/04/05 01:01:12;;;;;;;;;;;;;;;1.31;100.00;98896.25;5053842;28;905;-70
2023/04/05 01:03:43;;;;;;;;;;;;;;;1.25;100.00;98894.19;5053828;28;876;-68
2023/04/05 01:06:29;;;;;;;;;;;;;;;1.25;100.00;98891.47;5052772;28;1081;-73
2023/04/05 01:08:58;;;;;;;;;;;;;;;1.28;100.00;98883.38;5053845;28;919;-73
2023/04/05 01:11:25;;;;;;;;;;;;;;;1.32;100.00;98877.97;5052006;28;1389;-72
2023/04/05 01:14:01;;;;;;;;;;;;;;;1.34;100.00;98878.41;5053649;28;791;-73
2023/04/05 01:16:28;;;;;;;;;;;;;;;1.32;100.00;98848.81;5052412;28;874;-73
2023/04/05 01:18:55;;;;;;;;;;;;;;;1.35;100.00;98883.50;5053474;28;885;-68
2023/04/05 01:21:32;;;;;;;;;;;;;;;1.35;100.00;98878.03;5052158;28;1140;-73
2023/04/05 01:24:13;;;;;;;;;;;;;;;1.40;100.00;98874.22;5053626;28;857;-72
2023/04/05 01:26:46;;;;;;;;;;;;;;;1.37;100.00;98866.81;5053456;28;1968;-71
2023/04/05 01:29:36;;;;;;;;;;;;;;;1.38;100.00;98860.97;5053383;28;852;-72
2023/04/05 01:32:09;;;;;;;;;;;;;;;1.42;100.00;98866.47;5051984;28;1194;-74
2023/04/05 01:35:11;;;;;;;;;;;;;;;1.42;100.00;98869.22;5053101;28;810;-73
2023/04/05 01:37:39;;;;;;;;;;;;;;;1.47;100.00;98879.78;5011539;28;1353;-71
2023/04/05 01:40:27;;;;;;;;;;;;;;;1.50;100.00;98875.56;5001512;28;1158;-72
2023/04/05 01:42:54;;;;;;;;;;;;;;;1.50;100.00;98872.84;5053094;28;1432;-70
2023/04/05 01:45:21;;;;;;;;;;;;;;;1.52;100.00;98887.66;5051728;28;1081;-71
2023/04/05 01:47:48;;;;;;;;;;;;;;;1.55;100.00;98884.19;5052981;28;1934;-75
2023/04/05 01:50:14;;;;;;;;;;;;;;;1.57;100.00;98895.53;5052947;28;799;-70
2023/04/05 01:52:41;;;;;;;;;;;;;;;1.60;100.00;98878.47;5052762;28;885;-73
2023/04/05 01:55:08;;;;;;;;;;;;;;;1.59;100.00;98885.03;5051479;28;1270;-71
2023/04/05 01:57:34;;;;;;;;;;;;;;;1.62;100.00;98905.31;5051575;28;1191;-72
2023/04/05 02:00:00;;;;;;;;;;;;;;;1.62;100.00;98869.91;5052763;28;890;-73
2023/04/05 02:02:27;;;;;;;;;;;;;;;1.59;100.00;98895.16;5052871;28;898;-72
2023/04/05 02:04:54;;;;;;;;;;;;;;;1.58;100.00;98850.00;5051878;28;1057;-71
2023/04/05 02:07:24;;;;;;;;;;;;;;;1.59;100.00;98878.81;5052582;28;1953;-73
2023/04/05 02:09:51;;;;;;;;;;;;;;;1.58;100.00;98897.09;5052406;28;1422;-71
2023/04/05 02:12:19;;;;;;;;;;;;;;;1.60;100.00;98902.16;5051281;28;1081;-74
2023/04/05 02:14:46;;;;;;;;;;;;;;;1.60;100.00;98918.50;5052609;28;878;-70
2023/04/05 02:17:14;;;;;;;;;;;;;;;1.56;100.00;98914.97;5052421;28;827;-72
2023/04/05 02:19:51;;;;;;;;;;;;;;;1.56;100.00;98904.06;5051408;28;1258;-73
2023/04/05 02:22:18;;;;;;;;;;;;;;;1.55;100.00;98906.00;5050452;28;1278;-74
2023/04/05 02:24:45;;;;;;;;;;;;;;;1.59;100.00;98906.84;5052674;28;818;-71
2023/04/05 02:27:13;;;;;;;;;;;;;;;1.54;100.00;98933.63;5051020;28;1985;-72
2023/04/05 02:29:40;;;;;;;;;;;;;;;1.50;100.00;98927.31;5052417;28;822;-72
2023/04/05 02:32:10;;;;;;;;;;;;;;;1.51;100.00;98932.38;5052539;28;775;-73
2023/04/05 02:34:40;;;;;;;;;;;;;;;1.52;100.00;98958.47;5051135;28;1228;-69
2023/04/05 02:37:06;;;;;;;;;;;;;;;1.46;100.00;98932.69;5051959;28;838;-72
2023/04/05 02:39:33;;;;;;;;;;;;;;;1.43;100.00;98934.22;5052161;28;877;-72
2023/04/05 02:42:00;;;;;;;;;;;;;;;1.42;100.00;98940.00;5050689;28;1188;-72
2023/04/05 02:44:28;;;;;;;;;;;;;;;1.42;100.00;98957.13;5051980;28;798;-68
2023/04/05 02:46:55;;;;;;;;;;;;;;;1.41;100.00;98947.41;5051746;28;1957;-69
2023/04/05 02:49:23;;;;;;;;;;;;;;;1.43;100.00;98963.38;5050632;28;1175;-69
2023/04/05 02:51:50;;;;;;;;;;;;;;;1.41;100.00;99007.31;5051666;28;818;-72
2023/04/05 02:54:35;;;;;;;;;;;;;;;1.43;100.00;98969.59;5051659;28;980;-70
2023/04/05 02:57:03;;;;;;;;;;;;;;;1.43;100.00;98972.34;5051704;28;874;-70
2023/04/05 02:59:29;;;;;;;;;;;;;;;1.44;100.00;98984.00;5050459;28;1192;-68
2023/04/05 03:01:56;;;;;;;;;;;;;;;1.43;100.00;98985.94;5049202;28;1227;-70
2023/04/05 03:04:25;;;;;;;;;;;;;;;1.43;100.00;98999.56;5051649;28;798;-72
2023/04/05 03:06:53;;;;;;;;;;;;;;;1.43;100.00;98977.78;5050235;28;1890;-68
2023/04/05 03:09:26;;;;;;;;;;;;;;;1.46;100.00;98984.44;5051447;28;1231;-67
2023/04/05 03:11:53;;;;;;;;;;;;;;;1.43;100.00;98988.66;5051552;28;896;-68
2023/04/05 03:14:19;;;;;;;;;;;;;;;1.45;100.00;98995.69;5051452;28;799;-72
2023/04/05 03:16:49;;;;;;;;;;;;;;;1.45;100.00;98988.28;5050197;28;1179;-67
2023/04/05 03:19:17;;;;;;;;;;;;;;;1.47;100.00;98982.50;5051409;28;983;-66
2023/04/05 03:21:44;;;;;;;;;;;;;;;1.46;100.00;98995.31;5051236;28;874;-67
2023/04/05 03:24:11;;;;;;;;;;;;;;;1.42;100.00;98986.28;5051605;28;886;-62
2023/04/05 03:26:38;;;;;;;;;;;;;;;1.46;100.00;99000.00;5051272;28;1976;-64
2023/04/05 03:29:03;;;;;;;;;;;;;;;1.43;100.00;99013.19;5050038;28;1302;-64
2023/04/05 03:31:31;;;;;;;;;;;;;;;1.45;100.00;98998.41;5051292;28;819;-65
2023/04/05 03:33:57;;;;;;;;;;;;;;;1.44;100.00;98978.56;5051345;28;799;-63
2023/04/05 03:36:27;;;;;;;;;;;;;;;1.45;100.00;98993.72;5055555;28;827;-62
2023/04/05 03:38:55;;;;;;;;;;;;;;;1.45;100.00;98995.69;5055348;28;858;-62
2023/04/05 03:41:21;;;;;;;;;;;;;;;1.45;100.00;98985.56;5055357;28;807;-61
2023/04/05 03:43:48;;;;;;;;;;;;;;;1.48;100.00;98995.75;5055228;28;1048;-61
2023/04/05 03:46:15;;;;;;;;;;;;;;;1.48;100.00;98997.69;5055264;28;823;-61
2023/04/05 03:48:42;;;;;;;;;;;;;;;1.49;100.00;99007.44;5055088;28;1945;-61
2023/04/05 03:51:09;;;;;;;;;;;;;;;1.51;100.00;99003.19;5055303;28;842;-61
2023/04/05 03:53:36;;;;;;;;;;;;;;;1.57;100.00;99014.59;5055092;28;811;-60
2023/04/05 03:56:03;;;;;;;;;;;;;;;1.63;100.00;99004.97;5055141;28;821;-59
2023/04/05 03:58:30;;;;;;;;;;;;;;;1.68;100.00;99012.84;5054978;28;818;-62
2023/04/05 04:00:57;;;;;;;;;;;;;;;1.77;100.00;99035.19;5054971;28;815;-62
2023/04/05 04:03:24;;;;;;;;;;;;;;;1.78;100.00;99022.34;5054914;28;845;-62
2023/04/05 04:05:51;;;;;;;;;;;;;;;1.81;100.00;99021.63;5054846;28;811;-61
2023/04/05 04:08:18;;;;;;;;;;;;;;;1.88;100.00;99034.59;5053505;28;1931;-63
2023/04/05 04:10:45;;;;;;;;;;;;;;;1.91;100.00;99028.41;5054600;28;1221;-62
2023/04/05 04:13:12;;;;;;;;;;;;;;;1.94;100.00;99003.16;5054697;28;855;-62
2023/04/05 04:15:39;;;;;;;;;;;;;;;2.00;100.00;99037.13;5054700;28;862;-63
2023/04/05 04:18:06;;;;;;;;;;;;;;;2.04;100.00;99038.00;5054640;28;867;-61
2023/04/05 04:20:32;;;;;;;;;;;;;;;2.08;100.00;99025.22;5054477;28;838;-62
2023/04/05 04:22:59;;;;;;;;;;;;;;;2.12;100.00;99028.78;5054602;28;822;-62
2023/04/05 04:25:29;;;;;;;;;;;;;;;2.16;100.00;99040.53;5054496;28;818;-62
2023/04/05 04:27:56;;;;;;;;;;;;;;;2.20;100.00;99043.31;5054532;28;1914;-63
2023/04/05 04:30:23;;;;;;;;;;;;;;;2.25;100.00;99032.09;5053116;28;1318;-61
2023/04/05 04:32:50;;;;;;;;;;;;;;;2.31;100.00;99044.28;5054400;28;854;-62
2023/04/05 04:35:19;;;;;;;;;;;;;;;2.39;100.00;99042.44;5054323;28;799;-62
2023/04/05 04:37:54;;;;;;;;;;;;;;;2.45;100.00;99057.34;5054444;28;795;-62
2023/04/05 04:40:21;;;;;;;;;;;;;;;2.54;100.00;99090.63;5054300;28;794;-62
2023/04/05 04:42:48;;;;;;;;;;;;;;;2.61;100.00;99079.03;5054198;28;799;-61
2023/04/05 04:45:16;;;;;;;;;;;;;;;2.68;100.00;99084.59;5053840;28;928;-61
2023/04/05 04:47:48;;;;;;;;;;;;;;;2.74;100.00;99074.94;5053999;28;1890;-62
2023/04/05 04:50:15;;;;;;;;;;;;;;;2.86;100.00;99082.16;5054000;28;872;-61
2023/04/05 04:52:42;;;;;;;;;;;;;;;2.90;100.00;99093.09;5052767;28;1195;-61
2023/04/05 04:55:12;;;;;;;;;;;;;;;2.97;100.00;99099.44;5053952;28;790;-62
2023/04/05 04:57:40;;;;;;;;;;;;;;;3.04;100.00;99115.94;5053918;28;853;-61
2023/04/05 05:00:13;;;;;;;;;;;;;;;3.09;100.00;99097.66;5053845;28;810;-61
2023/04/05 05:02:42;;;;;;;;;;;;;;;3.14;100.00;99100.09;5053941;28;940;-61
2023/04/05 05:05:10;;;;;;;;;;;;;;;3.22;100.00;99120.84;5053827;28;829;-62
2023/04/05 05:07:39;;;;;;;;;;;;;;;3.38;100.00;99121.47;5053680;28;1885;-62
2023/04/05 05:10:07;;;;;;;;;;;;;;;3.43;100.00;99126.59;5053572;28;1203;-61
2023/04/05 05:12:34;;;;;;;;;;;;;;;3.47;100.00;99132.88;5053632;28;798;-61
2023/04/05 05:15:00;;;;;;;;;;;;;;;3.48;100.00;99134.47;5053544;28;880;-61
2023/04/05 05:17:27;;;;;;;;;;;;;;;3.52;100.00;99150.13;5053900;28;811;-62
2023/04/05 05:19:54;;;;;;;;;;;;;;;3.55;100.00;99127.53;5053408;28;838;-61
2023/04/05 05:22:21;;;;;;;;;;;;;;;3.75;100.00;99125.41;5053459;28;834;-61
2023/04/05 05:24:47;;;;;;;;;;;;;;;3.93;100.00;99133.84;5053405;28;882;-60
2023/04/05 05:27:13;;;;;;;;;;;;;;;4.04;100.00;99140.97;5053540;28;1906;-61
2023/04/05 05:29:40;;;;;;;;;;;;;;;4.30;100.00;99147.50;5053581;28;863;-61
2023/04/05 05:32:08;;;;;;;;;;;;;;;4.46;100.00;99148.03;5052011;28;1195;-61
2023/04/05 05:34:34;;;;;;;;;;;;;;;4.51;100.00;99141.44;5053291;28;885;-61
2023/04/05 05:37:01;;;;;;;;;;;;;;;4.67;100.00;99149.38;5053125;28;874;-61
2023/04/05 05:39:27;;;;;;;;;;;;;;;5.18;100.00;99156.00;5053395;28;846;-61
2023/04/05 05:41:54;;;;;;;;;;;;;;;5.72;100.00;99163.34;5053087;28;877;-61
2023/04/05 05:44:21;;;;;;;;;;;;;;;6.32;100.00;99175.72;5051879;28;854;-61
2023/04/05 05:46:48;;;;;;;;;;;;;;;6.24;100.00;99168.66;5051540;28;1894;-60
2023/04/05 05:49:15;;;;;;;;;;;;;;;6.58;100.00;99171.06;5052918;28;858;-61
2023/04/05 05:51:42;;;;;;;;;;;;;;;6.80;100.00;99171.84;5053117;28;854;-60
2023/04/05 05:54:08;;;;;;;;;;;;;;;7.05;100.00;99176.56;5052851;28;798;-64
2023/04/05 05:56:35;;;;;;;;;;;;;;;7.21;100.00;99173.41;5052340;28;814;-64
2023/04/05 05:59:02;;;;;;;;;;;;;;;7.07;100.00;99171.47;5052443;28;846;-64
2023/04/05 06:01:28;;;;;;;;;;;;;;;6.85;100.00;99179.72;5052642;28;830;-63
2023/04/05 06:03:54;;;;;;;;;;;;;;;6.98;100.00;99182.06;5052681;28;823;-63
2023/04/05 06:06:22;;;;;;;;;;;;;;;6.82;100.00;99179.72;5052836;28;854;-63
2023/04/05 06:08:48;;;;;;;;;;;;;;;7.86;100.00;99183.06;5052819;28;1886;-63
2023/04/05 06:11:17;;;;;;;;;;;;;;;8.18;100.00;99162.84;5052540;28;1125;-62
2023/04/05 06:13:44;;;;;;;;;;;;;;;7.70;100.00;99193.72;5052386;28;886;-63
2023/04/05 06:16:10;;;;;;;;;;;;;;;7.76;100.00;99206.66;5052479;28;877;-63
2023/04/05 06:18:37;;;;;;;;;;;;;;;7.93;100.00;99201.50;5052277;28;854;-63
2023/04/05 06:21:04;;;;;;;;;;;;;;;7.82;100.00;99209.78;5052361;28;878;-62
2023/04/05 06:23:31;;;;;;;;;;;;;;;7.41;100.00;99215.78;5052255;28;807;-63
2023/04/05 06:25:57;;;;;;;;;;;;;;;6.92;100.00;99212.69;5052420;28;835;-62
2023/04/05 06:28:24;;;;;;;;;;;;;;;6.68;100.00;99219.72;5052198;28;1973;-62
2023/04/05 06:30:51;;;;;;;;;;;;;;;6.60;100.00;99220.09;5052466;28;889;-62
2023/04/05 06:33:17;;;;;;;;;;;;;;;6.56;100.00;99222.84;5052361;28;801;-62
2023/04/05 06:35:45;;;;;;;;;;;;;;;6.47;100.00;99219.69;5052330;28;827;-62
2023/04/05 06:38:12;;;;;;;;;;;;;;;6.33;100.00;99226.69;5050942;28;1294;-62
2023/04/05 06:40:38;;;;;;;;;;;;;;;6.38;100.00;99228.31;5052310;28;838;-62
2023/04/05 06:43:05;;;;;;;;;;;;;;;6.37;100.00;99234.16;5052294;28;794;-62
2023/04/05 06:45:32;;;;;;;;;;;;;;;6.31;100.00;99237.28;5052184;28;838;-62
2023/04/05 06:47:58;;;;;;;;;;;;;;;6.40;100.00;99236.94;5052292;28;1894;-62
2023/04/05 06:50:25;;;;;;;;;;;;;;;6.44;100.00;99239.66;5051866;28;795;-62
2023/04/05 06:52:52;;;;;;;;;;;;;;;6.44;100.00;99234.19;5052170;28;771;-63
2023/04/05 06:55:19;;;;;;;;;;;;;;;6.61;100.00;99227.16;5051737;28;889;-62
2023/04/05 06:57:45;;;;;;;;;;;;;;;6.63;100.00;99225.59;5052408;28;759;-62
2023/04/05 07:00:12;;;;;;;;;;;;;;;6.68;100.00;99235.44;5051991;28;898;-62
2023/04/05 07:02:39;;;;;;;;;;;;;;;6.84;100.00;99230.31;5051933;28;885;-62
2023/04/05 07:05:05;;;;;;;;;;;;;;;6.76;100.00;99236.97;5051634;28;802;-62
2023/04/05 07:07:32;;;;;;;;;;;;;;;7.14;100.00;99232.69;5051455;28;1952;-62
2023/04/05 07:09:59;;;;;;;;;;;;;;;7.24;100.00;99241.34;5049965;28;1264;-62
2023/04/05 07:12:26;;;;;;;;;;;;;;;7.24;100.00;99239.38;5051529;28;865;-62
2023/04/05 07:14:52;;;;;;;;;;;;;;;7.34;100.00;99244.09;5050207;28;950;-63
2023/04/05 07:17:19;;;;;;;;;;;;;;;7.68;100.00;99242.84;5051378;28;787;-62
2023/04/05 07:19:45;;;;;;;;;;;;;;;7.76;100.00;99247.94;5051430;28;871;-62
2023/04/05 07:22:12;;;;;;;;;;;;;;;7.90;100.00;99249.88;5051454;28;806;-62
2023/04/05 07:24:38;;;;;;;;;;;;;;;7.76;100.00;99255.41;5050081;28;1314;-62
2023/04/05 07:27:05;;;;;;;;;;;;;;;7.90;100.00;99257.34;5051629;28;1918;-62
2023/04/05 07:29:33;;;;;;;;;;;;;;;7.97;100.00;99263.59;5051344;28;889;-62
2023/04/05 07:32:00;;;;;;;;;;;;;;;7.63;100.00;99266.03;5051334;28;850;-62
2023/04/05 07:34:27;;;;;;;;;;;;;;;7.88;100.00;99266.00;5051248;28;815;-62
2023/04/05 07:36:55;;;;;;;;;;;;;;;8.00;100.00;99278.56;5051333;28;818;-62
2023/04/05 07:39:22;;;;;;;;;;;;;;;8.23;100.00;99280.03;5051578;28;811;-62
2023/04/05 07:41:50;;;;;;;;;;;;;;;8.58;100.00;99270.88;5051513;28;885;-62
2023/04/05 07:44:16;;;;;;;;;;;;;;;8.86;100.00;99271.88;5051233;28;818;-62
2023/04/05 07:46:44;;;;;;;;;;;;;;;8.97;100.00;99276.13;5051012;28;1893;-62
2023/04/05 07:49:11;;;;;;;;;;;;;;;9.08;100.00;99278.03;5051415;28;810;-62
2023/04/05 07:51:38;;;;;;;;;;;;;;;8.48;100.00;99277.22;5051430;28;830;-62
2023/04/05 07:54:04;;;;;;;;;;;;;;;8.48;100.00;99279.97;5051176;28;838;-62
2023/04/05 07:56:31;;;;;;;;;;;;;;;8.28;100.00;99283.16;5051088;28;870;-62
2023/04/05 07:58:58;;;;;;;;;;;;;;;9.27;100.00;99277.47;5051104;28;870;-62
2023/04/05 08:01:27;;;;;;;;;;;;;;;9.73;100.00;99286.53;5050999;28;791;-62
2023/04/05 08:03:56;;;;;;;;;;;;;;;10.28;100.00;99282.00;5051275;28;890;-62
2023/04/05 08:06:23;;;;;;;;;;;;;;;10.54;100.00;99288.78;5051778;28;846;-62
2023/04/05 08:08:50;;;;;;;;;;;;;;;9.88;100.00;99295.44;5051255;28;1877;-62
2023/04/05 10:12:59;;;;;;;;;;;;;;;10.39;100.00;99311.09;5072793;28;1286;-72
2023/04/05 10:15:25;;;;;;;;;;;;;;;11.04;100.00;99310.22;5072587;28;821;-73
2023/04/05 10:17:59;;;;;;;;;;;;;;;10.85;96.89;99310.91;5072462;28;826;-74
2023/04/05 10:20:27;;;;;;;;;;;;;;;10.93;95.08;99307.63;5071278;28;1206;-73
2023/04/05 10:23:04;;;;;;;;;;;;;;;11.08;96.43;99308.19;5072342;28;810;-74
2023/04/05 10:25:39;;;;;;;;;;;;;;;11.28;94.14;99313.81;5072306;28;1115;-73
2023/04/05 10:28:26;;;;;;;;;;;;;;;11.02;95.78;99313.41;5072554;28;1969;-72
2023/04/05 10:30:58;;;;;;;;;;;;;;;10.82;95.06;99324.38;5061940;28;1069;-73
2023/04/05 10:33:38;;;;;;;;;;;;;;;10.86;94.92;99318.00;5072357;28;817;-73
2023/04/05 10:36:23;;;;;;;;;;;;;;;10.86;94.73;99318.78;5072118;28;798;-73
2023/04/05 10:39:11;;;;;;;;;;;;;;;10.70;96.14;99315.84;5072097;28;876;-74
2023/04/05 10:42:01;;;;;;;;;;;;;;;10.24;94.41;99315.16;5072418;28;818;-75
2023/04/05 10:44:29;;;;;;;;;;;;;;;10.50;93.88;99322.03;5079302;28;1361;-73
2023/04/05 10:46:57;;;;;;;;;;;;;;;10.82;93.95;99318.84;5072054;28;1902;-72
2023/04/05 10:49:24;;;;;;;;;;;;;;;10.97;90.04;99322.19;5072031;28;880;-75
2023/04/05 10:51:51;;;;;;;;;;;;;;;10.69;89.66;99334.41;5070649;28;1354;-74
2023/04/05 10:54:18;;;;;;;;;;;;;;;10.80;91.75;99321.22;5071835;28;905;-74
2023/04/05 10:56:45;;;;;;;;;;;;;;;10.99;91.25;99327.31;5071975;28;888;-73
2023/04/05 10:59:12;;;;;;;;;;;;;;;10.96;90.17;99328.91;5071746;28;891;-72
2023/04/05 11:01:40;;;;;;;;;;;;;;;11.20;91.33;99317.88;5071793;28;881;-72
2023/04/05 11:04:13;;;;;;;;;;;;;;;11.21;90.21;99322.22;5071771;28;841;-73
2023/04/05 11:06:40;;;;;;;;;;;;;;;11.10;89.72;99324.38;5070404;28;1065;-72
2023/04/05 11:09:14;;;;;;;;;;;;;;;11.23;91.85;99317.06;5071754;28;985;-72
2023/04/05 11:11:43;;;;;;;;;;;;;;;11.39;90.76;99310.88;5071575;28;1093;-73
2023/04/05 11:14:22;;;;;;;;;;;;;;;11.48;90.87;99308.38;5071665;28;837;-73
2023/04/05 11:16:52;;;;;;;;;;;;;;;11.24;90.01;99315.84;5070335;28;1176;-74
2023/04/05 11:19:19;;;;;;;;;;;;;;;11.31;88.13;99320.50;5071517;28;881;-73
2023/04/05 11:21:46;;;;;;;;;;;;;;;11.34;89.27;99308.59;5071553;28;847;-72
2023/04/05 11:24:17;;;;;;;;;;;;;;;11.82;90.51;99321.22;5071488;28;810;-72
2023/04/05 11:26:44;;;;;;;;;;;;;;;11.94;88.57;99317.88;5071518;28;1976;-72
2023/04/05 11:29:10;;;;;;;;;;;;;;;11.29;82.88;99322.88;5071528;28;837;-70
2023/04/05 11:31:56;;;;;;;;;;;;;;;10.93;87.23;99315.91;5071751;28;904;-73
2023/04/05 11:34:23;;;;;;;;;;;;;;;11.01;86.32;99311.09;5071830;28;861;-73
2023/04/05 11:36:50;;;;;;;;;;;;;;;11.35;86.73;99310.97;5071847;28;818;-73
2023/04/05 11:39:22;;;;;;;;;;;;;;;11.59;88.88;99308.19;5071592;28;837;-72
2023/04/05 11:41:57;;;;;;;;;;;;;;;11.60;89.42;99301.44;5069980;28;1072;-75
2023/04/05 11:44:23;;;;;;;;;;;;;;;11.39;88.26;99317.22;5071418;28;830;-72
2023/04/05 11:46:50;;;;;;;;;;;;;;;11.55;90.69;99313.00;5071228;28;1960;-72
2023/04/05 11:49:20;;;;;;;;;;;;;;;11.72;90.16;99319.44;5071325;28;852;-72
2023/04/05 11:51:47;;;;;;;;;;;;;;;11.95;92.82;99316.69;5071203;28;888;-72
2023/04/05 11:54:26;;;;;;;;;;;;;;;12.07;90.69;99306.19;5071312;28;868;-73
2023/04/05 11:56:53;;;;;;;;;;;;;;;11.80;89.19;99315.34;5074382;28;937;-71
2023/04/05 11:59:26;;;;;;;;;;;;;;;11.74;92.93;99311.50;5075238;28;766;-71
2023/04/05 12:02:04;;;;;;;;;;;;;;;11.99;92.88;99319.38;5075135;28;932;-71
2023/04/05 12:04:30;;;;;;;;;;;;;;;11.70;90.99;99327.38;5075269;28;876;-72
2023/04/05 12:07:10;;;;;;;;;;;;;;;11.58;93.92;99317.69;5073771;28;1885;-71
2023/04/05 12:09:54;;;;;;;;;;;;;;;11.75;93.52;99324.91;5075241;28;929;-72
2023/04/05 12:12:21;;;;;;;;;;;;;;;12.15;96.60;99315.94;5074854;28;1253;-72
2023/04/05 12:14:47;;;;;;;;;;;;;;;11.92;90.03;99327.81;5074911;28;885;-70
2023/04/05 12:17:14;;;;;;;;;;;;;;;11.43;91.33;99323.44;5073496;28;1155;-71
2023/04/05 12:19:41;;;;;;;;;;;;;;;11.12;92.52;99322.75;5074733;28;854;-71
2023/04/05 12:22:08;;;;;;;;;;;;;;;10.93;92.14;99315.91;5074671;28;865;-71
2023/04/05 12:24:34;;;;;;;;;;;;;;;10.91;95.98;99317.53;5074609;28;830;-71
2023/04/05 12:27:01;;;;;;;;;;;;;;;10.72;96.41;99319.75;5073210;28;1910;-72
2023/04/05 12:29:27;;;;;;;;;;;;;;;10.37;97.06;99321.78;5074602;28;813;-72
2023/04/05 12:31:54;;;;;;;;;;;;;;;10.17;97.92;99320.78;5074443;28;837;-72
2023/04/05 12:34:26;;;;;;;;;;;;;;;10.05;98.78;99319.34;5074452;28;860;-72
2023/04/05 12:36:53;;;;;;;;;;;;;;;9.82;100.00;99312.47;5074337;28;869;-71
2023/04/05 12:39:20;;;;;;;;;;;;;;;9.87;100.00;99304.94;5074365;28;822;-73
2023/04/05 12:41:57;;;;;;;;;;;;;;;9.71;99.01;99302.75;5074637;28;760;-73
2023/04/05 12:44:30;;;;;;;;;;;;;;;9.69;98.50;99308.66;5075050;28;778;-73
2023/04/05 12:47:08;;;;;;;;;;;;;;;9.65;98.99;99312.63;5074246;28;1886;-73
2023/04/05 12:49:37;;;;;;;;;;;;;;;9.56;97.03;99305.63;5074139;28;881;-72
2023/04/05 12:52:04;;;;;;;;;;;;;;;9.48;97.56;99304.09;5074186;28;822;-72
2023/04/05 12:54:31;;;;;;;;;;;;;;;9.60;98.47;99302.81;5074027;28;876;-72
2023/04/05 13:09:08;;;;;;;;;;;;;;;10.12;96.83;99293.63;5074152;28;1894;-72
2023/04/05 13:11:35;;;;;;;;;;;;;;;10.09;93.86;99306.28;5073657;28;1260;-72
2023/04/05 13:14:01;;;;;;;;;;;;;;;10.13;94.08;99309.75;5073825;28;841;-72
2023/04/05 13:16:27;;;;;;;;;;;;;;;10.20;95.26;99309.72;5073688;28;822;-72
2023/04/05 13:18:54;;;;;;;;;;;;;;;10.05;94.38;99310.25;5074060;28;770;-72
2023/04/05 13:21:20;;;;;;;;;;;;;;;9.79;95.89;99312.50;5072225;28;1249;-70
2023/04/05 13:23:46;;;;;;;;;;;;;;;9.59;96.36;99304.00;5073653;28;888;-72
2023/04/05 13:26:13;;;;;;;;;;;;;;;9.57;96.91;99301.66;5072225;28;1167;-72
2023/04/05 13:28:40;;;;;;;;;;;;;;;9.57;94.86;99298.13;5073423;28;1945;-72
2023/04/05 13:31:07;;;;;;;;;;;;;;;9.58;96.62;99296.91;5073635;28;865;-74
2023/04/05 13:33:33;;;;;;;;;;;;;;;9.57;95.56;99306.41;5072035;28;1313;-72
2023/04/05 13:36:00;;;;;;;;;;;;;;;9.53;94.43;99309.16;5073272;28;849;-72
2023/04/05 13:38:26;;;;;;;;;;;;;;;9.54;96.66;99305.25;5073147;28;853;-71
2023/04/05 13:40:53;;;;;;;;;;;;;;;9.48;95.96;99304.09;5073308;28;798;-73
2023/04/05 13:43:19;;;;;;;;;;;;;;;9.43;96.35;99310.06;5073151;28;846;-72
2023/04/05 13:45:45;;;;;;;;;;;;;;;9.37;96.58;99308.94;5073145;28;837;-72
2023/04/05 13:48:12;;;;;;;;;;;;;;;9.27;98.27;99307.03;5072965;28;1893;-73
2023/04/05 13:50:39;;;;;;;;;;;;;;;9.30;98.81;99301.50;5073036;28;798;-73
2023/04/05 13:53:06;;;;;;;;;;;;;;;9.33;99.69;99310.94;5073012;28;822;-70
2023/04/05 13:55:33;;;;;;;;;;;;;;;9.35;100.00;99309.34;5073022;28;876;-71
2023/04/05 13:57:59;;;;;;;;;;;;;;;9.34;100.00;99310.50;5072905;28;810;-72
2023/04/05 14:00:26;;;;;;;;;;;;;;;9.22;98.13;99319.28;5073103;28;813;-72
2023/04/05 14:02:52;;;;;;;;;;;;;;;9.23;99.00;99320.06;5072827;28;868;-72
2023/04/05 14:05:19;;;;;;;;;;;;;;;9.18;100.00;99318.53;5072583;28;877;-71
2023/04/05 14:07:45;;;;;;;;;;;;;;;9.19;100.00;99318.09;5072767;28;1897;-71
2023/04/05 14:10:12;;;;;;;;;;;;;;;9.09;99.04;99318.97;5072950;28;945;-71
2023/04/05 14:12:38;;;;;;;;;;;;;;;9.09;100.00;99318.16;5072484;28;1411;-71
2023/04/05 14:15:05;;;;;;;;;;;;;;;9.04;100.00;99311.13;5072521;28;852;-72
2023/04/05 14:17:31;;;;;;;;;;;;;;;8.92;100.00;99319.88;5072198;28;810;-72
2023/04/05 14:19:58;;;;;;;;;;;;;;;8.88;100.00;99316.38;5070884;28;1298;-70
2023/04/05 14:22:24;;;;;;;;;;;;;;;8.85;100.00;99325.41;5072646;28;869;-69
2023/04/05 14:24:51;;;;;;;;;;;;;;;8.78;100.00;99323.50;5072636;28;798;-71
2023/04/05 14:27:20;;;;;;;;;;;;;;;8.75;100.00;99325.09;5072418;28;1913;-71
2023/04/05 14:29:47;;;;;;;;;;;;;;;8.79;100.00;99328.59;5072655;28;865;-71
2023/04/05 14:32:14;;;;;;;;;;;;;;;8.85;100.00;99330.94;5071002;28;870;-71
2023/04/05 14:34:40;;;;;;;;;;;;;;;8.87;100.00;99321.06;5072000;28;896;-71
2023/04/05 14:37:07;;;;;;;;;;;;;;;8.83;100.00;99333.31;5072275;28;774;-71
2023/04/05 14:39:34;;;;;;;;;;;;;;;8.73;100.00;99337.69;5072343;28;826;-71
2023/04/05 14:42:01;;;;;;;;;;;;;;;8.63;100.00;99335.78;5072249;28;900;-72
2023/04/05 14:44:27;;;;;;;;;;;;;;;8.55;100.00;99337.75;5072304;28;885;-70
2023/04/05 14:46:54;;;;;;;;;;;;;;;8.51;100.00;99348.00;5072186;28;1882;-70
2023/04/05 14:49:20;;;;;;;;;;;;;;;8.53;100.00;99345.63;5072417;28;818;-69
2023/04/05 14:51:47;;;;;;;;;;;;;;;8.47;100.00;99345.28;5072308;28;1026;-71
2023/04/05 14:54:14;;;;;;;;;;;;;;;8.48;100.00;99348.81;5072039;28;1275;-71
2023/04/05 14:56:40;;;;;;;;;;;;;;;8.51;100.00;99346.06;5072134;28;873;-71
2023/04/05 14:59:07;;;;;;;;;;;;;;;8.47;100.00;99350.78;5071793;28;858;-71
2023/04/05 15:01:35;;;;;;;;;;;;;;;8.45;100.00;99352.34;5071886;28;882;-72
2023/04/05 15:04:02;;;;;;;;;;;;;;;8.37;100.00;99352.34;5071699;28;893;-71
2023/04/05 15:06:29;;;;;;;;;;;;;;;8.37;100.00;99351.56;5072440;28;822;-70
2023/04/05 15:08:55;;;;;;;;;;;;;;;8.39;100.00;99360.22;5071788;28;1910;-71
2023/04/05 15:11:22;;;;;;;;;;;;;;;8.45;100.00;99353.16;5071389;28;1370;-70
2023/04/05 15:13:48;;;;;;;;;;;;;;;8.46;100.00;99353.94;5070372;28;1222;-71
2023/04/05 15:16:15;;;;;;;;;;;;;;;8.38;100.00;99351.19;5071692;28;869;-71
2023/04/05 15:18:42;;;;;;;;;;;;;;;8.33;100.00;99359.06;5071843;28;842;-71
2023/04/05 15:21:08;;;;;;;;;;;;;;;8.26;100.00;99365.38;5071597;28;869;-72
2023/04/05 15:23:35;;;;;;;;;;;;;;;8.16;100.00;99357.94;5071532;28;845;-71
2023/04/05 15:26:01;;;;;;;;;;;;;;;8.13;100.00;99370.53;5071512;28;853;-71